createdAt,value
2018-08-12T00:00:25.627Z,12.10
2018-08-12T00:02:55.392Z,11.03
2018-08-12T00:05:24.409Z,11.30
2018-08-12T00:07:53.133Z,11.33
2018-08-12T00:10:22.446Z,10.10
2018-08-12T00:12:51.138Z,11.37
2018-08-12T00:15:21.383Z,11.93
2018-08-12T00:17:50.776Z,11.47
2018-08-12T00:20:22.104Z,11.50
2018-08-12T00:22:51.194Z,11.90
2018-08-12T00:25:21.852Z,12.07
2018-08-12T00:27:50.512Z,11.70
2018-08-12T00:30:19.964Z,11.73
2018-08-12T00:32:50.891Z,11.03
2018-08-12T00:35:20.292Z,11.27
2018-08-12T00:37:48.894Z,10.17
2018-08-12T00:40:18.249Z,10.27
2018-08-12T00:42:47.492Z,10.00
2018-08-12T00:45:17.885Z,9.80
2018-08-12T00:47:46.880Z,10.13
2018-08-12T00:50:16.407Z,9.43
2018-08-12T00:52:45.116Z,9.63
2018-08-12T00:55:15.364Z,9.40
2018-08-12T00:57:44.986Z,9.07
2018-08-12T01:00:16.474Z,12.10
2018-08-12T01:02:45.641Z,8.47
2018-08-12T01:05:16.001Z,9.00
2018-08-12T01:07:45.843Z,8.67
2018-08-12T01:10:15.656Z,8.40
2018-08-12T01:12:44.451Z,8.50
2018-08-12T01:15:15.933Z,7.87
2018-08-12T01:17:45.423Z,8.30
2018-08-12T01:20:17.959Z,9.30
2018-08-12T01:22:47.367Z,7.83
2018-08-12T01:25:16.405Z,7.53
2018-08-12T01:27:45.079Z,7.77
2018-08-12T01:30:16.069Z,8.07
2018-08-12T01:32:45.177Z,7.97
2018-08-12T01:35:14.440Z,7.80
2018-08-12T01:37:44.208Z,6.83
2018-08-12T01:40:14.063Z,7.67
2018-08-12T01:42:43.603Z,7.27
2018-08-12T01:45:14.003Z,6.37
2018-08-12T01:47:42.653Z,6.23
2018-08-12T01:50:13.121Z,6.40
2018-08-12T01:52:41.678Z,6.67
2018-08-12T01:55:10.254Z,7.23
2018-08-12T01:57:38.893Z,6.50
2018-08-12T02:00:09.478Z,6.90
2018-08-12T02:02:38.037Z,7.43
2018-08-12T02:05:07.193Z,6.13
2018-08-12T02:07:36.071Z,6.80
2018-08-12T02:10:06.329Z,6.13
2018-08-12T02:12:35.348Z,6.20
2018-08-12T02:15:04.860Z,7.03
2018-08-12T02:17:33.436Z,6.30
2018-08-12T02:20:02.064Z,5.87
2018-08-12T02:22:30.657Z,7.03
2018-08-12T02:25:00.070Z,6.13
2018-08-12T02:27:28.696Z,6.10
2018-08-12T02:29:57.305Z,6.17
2018-08-12T02:32:26.217Z,6.47
2018-08-12T02:34:54.893Z,5.90
2018-08-12T02:37:23.572Z,6.00
2018-08-12T02:39:52.360Z,5.90
2018-08-12T02:42:21.325Z,6.60
2018-08-12T02:44:49.930Z,5.40
2018-08-12T02:47:18.498Z,5.33
2018-08-12T02:49:47.096Z,5.00
2018-08-12T02:52:15.710Z,5.37
2018-08-12T02:54:44.306Z,7.37
2018-08-12T02:57:13.063Z,6.53
2018-08-12T02:59:41.600Z,5.13
2018-08-12T03:02:11.450Z,4.70
2018-08-12T03:04:40.056Z,4.30
2018-08-12T03:07:08.729Z,4.20
2018-08-12T03:09:37.290Z,3.67
2018-08-12T03:12:06.236Z,5.23
2018-08-12T03:14:34.861Z,3.80
2018-08-12T03:17:03.468Z,4.77
2018-08-12T03:19:32.151Z,3.80
2018-08-12T03:22:00.918Z,3.53
2018-08-12T03:24:29.608Z,4.27
2018-08-12T03:26:58.223Z,3.60
2018-08-12T03:29:26.869Z,3.60
2018-08-12T03:31:55.668Z,3.40
2018-08-12T03:34:24.707Z,4.57
2018-08-12T03:36:53.272Z,3.20
2018-08-12T03:39:21.999Z,2.60
2018-08-12T03:41:50.906Z,3.73
2018-08-12T03:44:20.156Z,4.23
2018-08-12T03:46:49.015Z,3.77
2018-08-12T03:49:17.615Z,3.10
2018-08-12T03:53:17.112Z,3.33
2018-08-12T03:55:46.052Z,3.57
2018-08-12T03:58:15.121Z,4.67
2018-08-12T04:00:43.700Z,3.73
2018-08-12T04:03:12.360Z,4.43
2018-08-12T04:05:41.047Z,3.30
2018-08-12T04:08:09.703Z,3.00
2018-08-12T04:10:38.576Z,2.60
2018-08-12T04:13:07.131Z,2.53
2018-08-12T04:15:35.813Z,2.60
2018-08-12T04:18:04.527Z,2.80
2018-08-12T04:20:33.167Z,2.90
2018-08-12T04:23:01.725Z,3.70
2018-08-12T04:25:30.598Z,2.73
2018-08-12T04:28:00.233Z,2.57
2018-08-12T04:30:28.908Z,3.20
2018-08-12T04:32:57.665Z,2.87
2018-08-12T04:35:26.837Z,3.20
2018-08-12T04:37:55.592Z,3.27
2018-08-12T04:40:24.639Z,2.43
2018-08-12T04:42:53.891Z,2.70
2018-08-12T04:45:22.831Z,3.30
2018-08-12T04:47:52.127Z,2.97
2018-08-12T04:50:21.105Z,2.10
2018-08-12T04:52:50.234Z,2.47
2018-08-12T04:55:19.168Z,2.03
2018-08-12T04:57:47.900Z,2.93
2018-08-12T05:00:16.742Z,2.70
2018-08-12T05:02:45.904Z,2.70
2018-08-12T05:05:15.490Z,3.13
2018-08-12T05:07:44.588Z,2.57
2018-08-12T05:10:13.308Z,3.23
2018-08-12T05:12:41.952Z,2.13
2018-08-12T05:15:11.138Z,2.57
2018-08-12T05:17:40.445Z,2.70
2018-08-12T05:20:09.566Z,2.93
2018-08-12T05:22:39.255Z,2.90
2018-08-12T05:25:07.911Z,3.20
2018-08-12T05:27:37.025Z,2.77
2018-08-12T05:30:07.315Z,3.13
2018-08-12T05:32:35.997Z,3.80
2018-08-12T05:35:05.565Z,2.67
2018-08-12T05:37:34.353Z,2.27
2018-08-12T05:40:03.126Z,2.67
2018-08-12T05:42:31.950Z,4.00
2018-08-12T05:45:01.076Z,2.57
2018-08-12T05:47:30.453Z,2.70
2018-08-12T05:49:59.492Z,3.13
2018-08-12T05:52:28.424Z,2.13
2018-08-12T05:54:57.449Z,2.67
2018-08-12T05:57:26.889Z,2.20
2018-08-12T05:59:55.413Z,3.33
2018-08-12T06:02:24.161Z,2.40
2018-08-12T06:04:53.149Z,2.93
2018-08-12T06:07:22.037Z,2.07
2018-08-12T06:09:50.901Z,2.20
2018-08-12T06:12:19.559Z,1.93
2018-08-12T06:14:48.471Z,1.97
2018-08-12T06:17:17.131Z,2.33
2018-08-12T06:19:45.817Z,2.97
2018-08-12T06:22:15.131Z,2.50
2018-08-12T06:24:44.083Z,2.90
2018-08-12T06:27:12.835Z,2.10
2018-08-12T06:29:41.541Z,3.07
2018-08-12T06:32:10.397Z,2.67
2018-08-12T06:34:39.173Z,2.23
2018-08-12T06:37:08.193Z,3.17
2018-08-12T06:39:37.051Z,3.10
2018-08-12T06:42:05.881Z,3.70
2018-08-12T06:44:34.657Z,3.43
2018-08-12T06:47:03.417Z,2.47
2018-08-12T06:49:32.499Z,2.60
2018-08-12T06:52:01.139Z,2.93
2018-08-12T06:54:30.126Z,2.87
2018-08-12T06:56:59.339Z,3.10
2018-08-12T06:59:28.358Z,2.83
2018-08-12T07:01:57.660Z,3.67
2018-08-12T07:04:26.598Z,1.83
2018-08-12T07:06:55.239Z,3.10
2018-08-12T07:09:23.893Z,5.07
2018-08-12T07:11:52.837Z,2.27
2018-08-12T07:14:22.649Z,2.33
2018-08-12T07:16:51.634Z,2.87
2018-08-12T07:19:20.428Z,2.47
2018-08-12T07:21:49.319Z,2.50
2018-08-12T07:24:19.035Z,2.07
2018-08-12T07:26:47.684Z,2.10
2018-08-12T07:29:16.409Z,2.20
2018-08-12T07:31:45.368Z,4.07
2018-08-12T07:34:14.453Z,3.60
2018-08-12T07:36:43.090Z,2.93
2018-08-12T07:39:12.255Z,2.50
2018-08-12T07:41:41.224Z,1.70
2018-08-12T07:44:10.401Z,3.70
2018-08-12T07:46:39.039Z,2.40
2018-08-12T07:49:07.694Z,3.03
2018-08-12T07:51:37.166Z,2.43
2018-08-12T07:54:05.707Z,3.00
2018-08-12T07:56:34.412Z,3.47
2018-08-12T07:59:03.301Z,2.37
2018-08-12T08:01:32.108Z,2.37
2018-08-12T08:04:01.206Z,4.53
2018-08-12T08:06:30.416Z,3.30
2018-08-12T08:08:59.319Z,2.83
2018-08-12T08:11:28.373Z,2.90
2018-08-12T08:13:57.323Z,3.67
2018-08-12T08:16:26.629Z,2.17
2018-08-12T08:18:55.315Z,3.27
2018-08-12T08:21:23.945Z,2.60
2018-08-12T08:23:52.687Z,2.10
2018-08-12T08:26:21.388Z,2.43
2018-08-12T08:28:50.133Z,3.17
2018-08-12T08:31:19.108Z,2.30
2018-08-12T08:33:47.957Z,2.20
2018-08-12T08:36:17.065Z,1.87
2018-08-12T08:38:45.717Z,3.60
2018-08-12T08:41:15.010Z,2.10
2018-08-12T08:43:43.757Z,1.97
2018-08-12T08:46:12.647Z,2.33
2018-08-12T08:48:41.275Z,6.30
2018-08-12T08:51:09.928Z,2.47
2018-08-12T08:53:38.738Z,2.90
2018-08-12T08:56:08.110Z,2.50
2018-08-12T08:58:36.771Z,1.90
2018-08-12T09:01:05.693Z,2.77
2018-08-12T09:03:34.453Z,3.03
2018-08-12T09:06:03.167Z,2.97
2018-08-12T09:08:34.407Z,3.33
2018-08-12T09:11:03.852Z,3.63
2018-08-12T09:13:32.592Z,2.17
2018-08-12T09:16:01.503Z,1.70
2018-08-12T09:18:30.617Z,2.07
2018-08-12T09:21:00.231Z,2.10
2018-08-12T09:23:29.082Z,3.00
2018-08-12T09:25:57.846Z,5.03
2018-08-12T09:28:26.611Z,2.77
2018-08-12T09:30:55.504Z,1.80
2018-08-12T09:33:24.444Z,2.70
2018-08-12T09:35:53.194Z,2.47
2018-08-12T09:38:21.861Z,1.93
2018-08-12T09:40:50.848Z,2.53
2018-08-12T09:43:19.659Z,3.03
2018-08-12T09:45:48.619Z,1.77
2018-08-12T09:48:17.463Z,2.20
2018-08-12T09:50:46.218Z,2.43
2018-08-12T09:53:15.136Z,2.40
2018-08-12T09:55:44.150Z,2.43
2018-08-12T09:58:13.886Z,1.87
2018-08-12T10:00:42.575Z,2.07
2018-08-12T10:03:11.757Z,3.27
2018-08-12T10:05:40.520Z,3.37
2018-08-12T10:08:09.465Z,3.67
2018-08-12T10:10:38.082Z,2.20
2018-08-12T10:13:06.844Z,2.93
2018-08-12T10:15:36.404Z,3.90
2018-08-12T10:18:05.745Z,2.90
2018-08-12T10:20:34.780Z,3.17
2018-08-12T10:23:03.528Z,2.53
2018-08-12T10:25:32.829Z,2.07
2018-08-12T10:28:01.884Z,4.10
2018-08-12T10:30:31.129Z,1.87
2018-08-12T10:33:00.051Z,2.97
2018-08-12T10:35:29.052Z,4.63
2018-08-12T10:37:57.951Z,2.43
2018-08-12T10:40:26.581Z,1.97
2018-08-12T10:42:55.515Z,2.57
2018-08-12T10:45:24.585Z,2.63
2018-08-12T10:47:53.584Z,6.83
2018-08-12T10:50:22.238Z,3.07
2018-08-12T10:52:51.335Z,2.00
2018-08-12T10:55:21.511Z,3.67
2018-08-12T10:57:50.846Z,2.70
2018-08-12T11:00:22.535Z,1.93
2018-08-12T11:02:51.340Z,2.63
2018-08-12T11:05:20.430Z,2.97
2018-08-12T11:07:51.292Z,2.60
2018-08-12T11:10:20.070Z,2.60
2018-08-12T11:12:49.448Z,3.27
2018-08-12T11:15:18.107Z,2.87
2018-08-12T11:17:46.953Z,1.90
2018-08-12T11:20:15.552Z,2.30
2018-08-12T11:22:45.257Z,1.63
2018-08-12T11:25:14.051Z,1.50
2018-08-12T11:27:42.971Z,2.43
2018-08-12T11:30:14.252Z,1.73
2018-08-12T11:32:43.108Z,3.13
2018-08-12T11:35:13.590Z,2.23
2018-08-12T11:37:42.783Z,1.70
2018-08-12T11:40:12.845Z,2.43
2018-08-12T11:42:41.692Z,2.87
2018-08-12T11:45:13.972Z,2.43
2018-08-12T11:47:43.642Z,2.03
2018-08-12T11:50:12.970Z,3.10
2018-08-12T11:52:42.405Z,2.40
2018-08-12T11:55:12.704Z,4.53
2018-08-12T11:57:41.714Z,4.87
2018-08-12T12:00:17.096Z,2.93
2018-08-12T12:02:47.686Z,1.50
2018-08-12T12:05:16.884Z,2.00
2018-08-12T12:07:45.628Z,2.90
2018-08-12T12:10:17.576Z,3.23
2018-08-12T12:12:47.380Z,3.00
2018-08-12T12:15:16.848Z,2.20
2018-08-12T12:17:46.229Z,1.83
2018-08-12T12:20:16.137Z,2.47
2018-08-12T12:22:45.653Z,1.40
2018-08-12T12:25:16.565Z,1.87
2018-08-12T12:27:46.098Z,1.93
2018-08-12T12:30:23.339Z,2.83
2018-08-12T12:32:53.559Z,2.43
2018-08-12T12:35:22.574Z,2.53
2018-08-12T12:37:52.372Z,3.33
2018-08-12T12:40:20.968Z,1.33
2018-08-12T12:42:50.015Z,1.33
2018-08-12T12:45:18.856Z,2.00
2018-08-12T12:47:47.513Z,4.90
2018-08-12T12:50:19.418Z,1.80
2018-08-12T12:52:49.074Z,1.77
2018-08-12T12:55:18.575Z,2.50
2018-08-12T12:57:47.367Z,1.83
2018-08-12T13:00:17.707Z,2.90
2018-08-12T13:02:46.474Z,1.90
2018-08-12T13:05:16.425Z,3.23
2018-08-12T13:07:45.891Z,1.60
2018-08-12T13:10:15.830Z,2.73
2018-08-12T13:12:44.856Z,1.80
2018-08-12T13:15:14.492Z,3.47
2018-08-12T13:17:43.216Z,2.23
2018-08-12T13:20:14.095Z,1.50
2018-08-12T13:22:44.207Z,2.77
2018-08-12T13:25:14.588Z,2.17
2018-08-12T13:27:43.765Z,2.30
2018-08-12T13:30:13.737Z,1.63
2018-08-12T13:32:43.481Z,2.63
2018-08-12T13:35:12.128Z,1.47
2018-08-12T13:37:40.882Z,2.67
2018-08-12T13:40:12.531Z,2.00
2018-08-12T13:42:42.160Z,2.03
2018-08-12T13:45:11.861Z,2.63
2018-08-12T13:47:42.199Z,1.57
2018-08-12T13:50:13.227Z,3.57
2018-08-12T13:52:41.969Z,1.70
2018-08-12T13:55:11.321Z,2.10
2018-08-12T13:57:40.389Z,3.33
2018-08-12T14:00:13.760Z,1.90
2018-08-12T14:02:42.881Z,1.77
2018-08-12T14:05:13.030Z,2.67
2018-08-12T14:07:42.266Z,1.50
2018-08-12T14:10:11.532Z,1.63
2018-08-12T14:12:41.112Z,1.73
2018-08-12T14:15:12.455Z,2.37
2018-08-12T14:17:42.518Z,2.10
2018-08-12T14:20:12.834Z,1.60
2018-08-12T14:22:42.377Z,1.77
2018-08-12T14:25:11.343Z,2.60
2018-08-12T14:27:41.565Z,2.00
2018-08-12T14:30:13.301Z,2.63
2018-08-12T14:32:44.081Z,2.20
2018-08-12T14:35:13.624Z,1.50
2018-08-12T14:37:43.230Z,2.00
2018-08-12T14:40:12.770Z,2.20
2018-08-12T14:42:41.525Z,1.93
2018-08-12T14:45:11.701Z,2.07
2018-08-12T14:47:40.846Z,1.40
2018-08-12T14:50:11.710Z,1.70
2018-08-12T14:52:40.374Z,1.50
2018-08-12T14:55:09.660Z,2.60
2018-08-12T14:57:38.468Z,2.90
2018-08-12T15:00:09.747Z,1.47
2018-08-12T15:02:38.498Z,2.57
2018-08-12T15:05:07.065Z,1.77
2018-08-12T15:07:36.113Z,3.00
2018-08-12T15:10:06.093Z,1.60
2018-08-12T15:12:34.807Z,2.40
2018-08-12T15:15:03.517Z,1.50
2018-08-12T15:17:32.145Z,1.70
2018-08-12T15:20:01.172Z,1.93
2018-08-12T15:22:30.143Z,1.70
2018-08-12T15:24:58.751Z,2.00
2018-08-12T15:27:27.427Z,4.13
2018-08-12T15:29:56.053Z,1.93
2018-08-12T15:32:25.017Z,2.13
2018-08-12T15:34:53.762Z,1.30
2018-08-12T15:37:22.495Z,2.47
2018-08-12T15:39:51.321Z,1.73
2018-08-12T15:42:19.932Z,1.53
2018-08-12T15:44:48.807Z,1.30
2018-08-12T15:47:17.463Z,1.60
2018-08-12T15:49:46.373Z,2.30
2018-08-12T15:52:15.097Z,2.83
2018-08-12T15:54:43.655Z,3.33
2018-08-12T15:57:12.645Z,2.53
2018-08-12T15:59:41.738Z,2.93
2018-08-12T16:02:10.759Z,2.47
2018-08-12T16:04:39.724Z,3.20
2018-08-12T16:07:09.923Z,1.90
2018-08-12T16:09:38.766Z,2.07
2018-08-12T16:12:09.110Z,4.10
2018-08-12T16:14:38.150Z,3.47
2018-08-12T16:17:07.089Z,2.13
2018-08-12T16:19:36.188Z,1.87
2018-08-12T16:22:05.074Z,3.57
2018-08-12T16:24:33.909Z,3.73
2018-08-12T16:27:02.593Z,3.37
2018-08-12T16:29:31.247Z,2.00
2018-08-12T16:32:00.160Z,2.00
2018-08-12T16:34:28.839Z,2.43
2018-08-12T16:36:57.778Z,1.40
2018-08-12T16:39:26.492Z,1.50
2018-08-12T16:41:56.765Z,1.63
2018-08-12T16:44:25.697Z,3.27
2018-08-12T16:46:54.669Z,3.70
2018-08-12T16:49:23.523Z,1.87
2018-08-12T16:51:52.509Z,1.30
2018-08-12T16:54:21.259Z,2.30
2018-08-12T16:56:50.095Z,2.43
2018-08-12T16:59:19.114Z,2.23
2018-08-12T17:01:48.043Z,2.80
2018-08-12T17:04:17.247Z,2.10
2018-08-12T17:06:46.121Z,1.50
2018-08-12T17:09:14.991Z,1.40
2018-08-12T17:11:44.315Z,2.30
2018-08-12T17:14:13.062Z,1.40
2018-08-12T17:16:41.778Z,2.90
2018-08-12T17:19:10.759Z,2.00
2018-08-12T17:21:39.775Z,2.20
2018-08-12T17:24:08.990Z,3.07
2018-08-12T17:26:38.678Z,1.83
2018-08-12T17:29:07.936Z,2.27
2018-08-12T17:31:36.832Z,1.90
2018-08-12T17:34:05.824Z,1.30
2018-08-12T17:36:34.665Z,2.13
2018-08-12T17:39:06.306Z,2.80
2018-08-12T17:41:35.422Z,2.90
2018-08-12T17:44:04.982Z,4.10
2018-08-12T17:46:34.190Z,2.40
2018-08-12T17:49:03.265Z,3.50
2018-08-12T17:51:32.427Z,1.53
2018-08-12T17:54:01.672Z,1.80
2018-08-12T17:56:31.828Z,3.07
2018-08-12T17:59:00.644Z,1.60
2018-08-12T18:01:29.634Z,1.67
2018-08-12T18:04:01.572Z,2.53
2018-08-12T18:06:30.312Z,1.87
2018-08-12T18:08:59.365Z,1.70
2018-08-12T18:11:28.053Z,1.67
2018-08-12T18:13:57.082Z,2.60
2018-08-12T18:16:26.250Z,1.80
2018-08-12T18:18:55.910Z,2.47
2018-08-12T18:21:24.978Z,3.30
2018-08-12T18:23:54.066Z,2.43
2018-08-12T18:26:23.477Z,2.40
2018-08-12T18:28:52.422Z,3.43
2018-08-12T18:31:22.014Z,3.43
2018-08-12T18:33:51.430Z,2.43
2018-08-12T18:36:20.251Z,2.77
2018-08-12T18:38:49.150Z,3.00
2018-08-12T18:41:17.851Z,4.13
2018-08-12T18:43:47.526Z,2.87
2018-08-12T18:46:16.952Z,3.27
2018-08-12T18:48:45.704Z,4.47
2018-08-12T18:51:15.092Z,3.67
2018-08-12T18:53:43.943Z,2.90
2018-08-12T18:56:12.874Z,4.57
2018-08-12T18:58:41.768Z,4.00
2018-08-12T19:01:10.516Z,2.90
2018-08-12T19:03:39.656Z,4.53
2018-08-12T19:06:08.274Z,3.20
2018-08-12T19:08:37.259Z,4.50
2018-08-12T19:11:06.129Z,3.93
2018-08-12T19:13:36.665Z,2.50
2018-08-12T19:16:06.263Z,2.97
2018-08-12T19:18:35.619Z,2.97
2018-08-12T19:21:05.125Z,3.00
2018-08-12T19:23:34.359Z,3.57
2018-08-12T19:26:03.157Z,2.50
2018-08-12T19:28:32.065Z,2.37
2018-08-12T19:31:00.733Z,2.60
2018-08-12T19:33:29.643Z,2.43
2018-08-12T19:35:58.388Z,2.43
2018-08-12T19:38:27.104Z,2.90
2018-08-12T19:40:55.921Z,3.03
2018-08-12T19:43:25.314Z,2.30
2018-08-12T19:45:53.990Z,2.60
2018-08-12T19:48:23.210Z,3.83
2018-08-12T19:50:52.825Z,3.27
2018-08-12T19:53:22.219Z,3.17
2018-08-12T19:55:51.502Z,3.13
2018-08-12T19:58:20.897Z,2.60
2018-08-12T20:00:50.739Z,3.20
2018-08-12T20:03:19.655Z,3.93
2018-08-12T20:05:48.944Z,2.30
2018-08-12T20:08:17.845Z,3.47
2018-08-12T20:10:47.362Z,3.03
2018-08-12T20:13:16.744Z,3.27
2018-08-12T20:15:45.812Z,2.70
2018-08-12T20:18:14.653Z,3.37
2018-08-12T20:20:43.658Z,4.70
2018-08-12T20:23:12.750Z,3.20
2018-08-12T20:25:41.596Z,2.77
2018-08-12T20:28:11.437Z,3.27
2018-08-12T20:30:40.676Z,2.87
2018-08-12T20:33:09.582Z,3.90
2018-08-12T20:35:39.007Z,3.67
2018-08-12T20:38:08.967Z,4.20
2018-08-12T20:40:37.908Z,3.97
2018-08-12T20:43:07.515Z,4.53
2018-08-12T20:45:36.418Z,2.93
2018-08-12T20:48:05.064Z,3.80
2018-08-12T20:50:33.673Z,3.37
2018-08-12T20:53:02.597Z,5.87
2018-08-12T20:55:31.412Z,3.73
2018-08-12T20:58:00.270Z,3.60
2018-08-12T21:00:29.003Z,3.90
2018-08-12T21:02:58.469Z,3.80
2018-08-12T21:05:27.156Z,3.60
2018-08-12T21:07:55.971Z,4.37
2018-08-12T21:10:24.686Z,3.53
2018-08-12T21:12:53.313Z,4.60
2018-08-12T21:15:22.084Z,4.90
2018-08-12T21:17:50.967Z,4.00
2018-08-12T21:20:19.882Z,4.10
2018-08-12T21:22:49.296Z,6.40
2018-08-12T21:25:17.869Z,4.50
2018-08-12T21:27:46.477Z,4.20
2018-08-12T21:30:15.074Z,3.87
2018-08-12T21:32:43.738Z,4.70
2018-08-12T21:35:12.857Z,5.97
2018-08-12T21:37:42.686Z,4.30
2018-08-12T21:40:11.286Z,4.00
2018-08-12T21:42:40.000Z,4.10
2018-08-12T21:45:08.652Z,3.63
2018-08-12T21:47:37.578Z,3.33
2018-08-12T21:50:06.603Z,3.30
2018-08-12T21:52:35.172Z,4.63
2018-08-12T21:55:03.814Z,3.70
2018-08-12T21:57:32.613Z,4.50
2018-08-12T22:00:01.877Z,3.40
2018-08-12T22:02:30.544Z,3.57
2018-08-12T22:04:59.179Z,3.30
2018-08-12T22:07:27.809Z,3.67
2018-08-12T22:09:56.479Z,3.20
2018-08-12T22:12:26.101Z,3.40
2018-08-12T22:14:54.679Z,4.77
2018-08-12T22:17:23.306Z,5.93
2018-08-12T22:19:52.836Z,4.10
2018-08-12T22:22:22.241Z,3.40
2018-08-12T22:24:50.846Z,3.50
2018-08-12T22:27:19.858Z,3.90
2018-08-12T22:29:48.836Z,4.00
2018-08-12T22:32:17.561Z,4.40
2018-08-12T22:34:46.349Z,4.57
2018-08-12T22:37:15.017Z,3.30
2018-08-12T22:39:43.587Z,8.53
2018-08-12T22:42:12.448Z,5.60
2018-08-12T22:44:41.550Z,4.13
2018-08-12T22:47:10.273Z,4.27
2018-08-12T22:49:39.133Z,3.80
2018-08-12T22:52:07.775Z,4.90
2018-08-12T22:54:36.335Z,4.90
2018-08-12T22:57:05.060Z,7.40
2018-08-12T22:59:33.721Z,7.07
2018-08-12T23:02:02.466Z,7.67
2018-08-12T23:04:31.338Z,6.27
2018-08-12T23:07:00.483Z,5.60
2018-08-12T23:09:29.737Z,5.17
2018-08-12T23:11:58.421Z,5.73
2018-08-12T23:14:27.504Z,5.47
2018-08-12T23:16:59.955Z,5.63
2018-08-12T23:19:29.290Z,5.40
2018-08-12T23:21:58.363Z,6.33
2018-08-12T23:24:27.297Z,6.17
2018-08-12T23:26:56.605Z,5.77
2018-08-12T23:29:25.275Z,6.80
2018-08-12T23:31:53.843Z,6.10
2018-08-12T23:34:22.617Z,7.00
2018-08-12T23:36:51.298Z,9.07
2018-08-12T23:39:20.088Z,7.93
2018-08-12T23:41:49.288Z,7.10
2018-08-12T23:44:18.210Z,7.43
2018-08-12T23:46:47.457Z,6.87
2018-08-12T23:49:18.534Z,7.97
2018-08-12T23:51:47.149Z,7.00
2018-08-12T23:54:15.819Z,6.30
2018-08-12T23:56:44.375Z,8.20
2018-08-12T23:59:13.464Z,6.83
